createdAt,value
2019-01-29T00:03:12.344Z,18.85
2019-01-29T00:05:39.963Z,12.53
2019-01-29T00:08:07.258Z,13.13
2019-01-29T00:10:34.164Z,11.73
2019-01-29T00:13:01.786Z,13.03
2019-01-29T00:15:28.615Z,12.27
2019-01-29T00:17:55.579Z,18.53
2019-01-29T00:20:22.856Z,16.57
2019-01-29T00:22:49.849Z,20.80
2019-01-29T00:25:16.816Z,17.57
2019-01-29T00:27:43.672Z,14.50
2019-01-29T00:30:12.521Z,14.40
2019-01-29T00:32:40.092Z,12.27
2019-01-29T00:35:07.721Z,13.90
2019-01-29T00:37:35.454Z,16.70
2019-01-29T00:40:02.398Z,14.30
2019-01-29T00:42:29.451Z,12.13
2019-01-29T00:44:56.560Z,10.73
2019-01-29T00:47:23.549Z,13.97
2019-01-29T00:49:50.740Z,10.67
2019-01-29T00:52:17.531Z,11.37
2019-01-29T00:54:44.439Z,10.50
2019-01-29T00:57:11.532Z,10.23
2019-01-29T00:59:38.433Z,9.37
2019-01-29T01:02:05.417Z,9.87
2019-01-29T01:04:32.175Z,13.47
2019-01-29T01:06:58.874Z,9.00
2019-01-29T01:09:25.624Z,9.20
2019-01-29T01:11:52.310Z,9.83
2019-01-29T01:14:18.994Z,8.77
2019-01-29T01:16:45.784Z,8.97
2019-01-29T01:19:13.305Z,11.03
2019-01-29T01:21:40.957Z,9.20
2019-01-29T01:24:07.852Z,8.50
2019-01-29T01:26:41.853Z,10.30
2019-01-29T01:29:09.616Z,9.70
2019-01-29T01:31:36.442Z,9.10
2019-01-29T01:34:04.250Z,10.07
2019-01-29T01:36:31.983Z,9.80
2019-01-29T01:38:58.679Z,11.73
2019-01-29T01:41:26.021Z,13.80
2019-01-29T01:43:52.856Z,8.77
2019-01-29T01:46:19.671Z,9.20
2019-01-29T01:48:46.479Z,19.27
2019-01-29T01:51:13.335Z,13.50
2019-01-29T01:53:40.437Z,12.53
2019-01-29T01:56:07.278Z,14.13
2019-01-29T01:58:34.436Z,18.53
2019-01-29T02:01:01.548Z,13.47
2019-01-29T02:03:29.172Z,28.50
2019-01-29T02:05:55.989Z,14.00
2019-01-29T02:08:23.106Z,18.03
2019-01-29T02:10:49.902Z,19.97
2019-01-29T02:13:17.199Z,9.30
2019-01-29T02:15:44.808Z,19.70
2019-01-29T02:18:11.722Z,14.20
2019-01-29T02:20:38.516Z,15.00
2019-01-29T02:23:08.133Z,11.90
2019-01-29T02:25:32.418Z,16.57
2019-01-29T02:27:59.466Z,19.43
2019-01-29T02:30:26.254Z,15.93
2019-01-29T02:32:53.324Z,23.30
2019-01-29T02:35:20.035Z,18.40
2019-01-29T02:37:47.483Z,10.53
2019-01-29T02:40:17.962Z,11.17
2019-01-29T02:42:44.805Z,14.63
2019-01-29T02:45:13.067Z,15.27
2019-01-29T02:47:39.832Z,16.77
2019-01-29T02:50:13.676Z,15.70
2019-01-29T02:52:41.028Z,12.17
2019-01-29T02:55:07.891Z,17.30
2019-01-29T02:57:35.856Z,11.40
2019-01-29T03:00:03.779Z,17.50
2019-01-29T03:02:30.698Z,12.40
2019-01-29T03:04:58.853Z,11.23
2019-01-29T03:07:25.734Z,14.40
2019-01-29T03:09:52.946Z,14.27
2019-01-29T03:12:19.782Z,13.40
2019-01-29T03:14:46.541Z,15.67
2019-01-29T03:17:13.665Z,16.00
2019-01-29T03:19:40.458Z,11.83
2019-01-29T03:22:07.679Z,13.00
2019-01-29T03:24:34.371Z,11.10
2019-01-29T03:27:01.731Z,14.37
2019-01-29T03:29:29.476Z,13.40
2019-01-29T03:31:56.174Z,12.03
2019-01-29T03:34:23.332Z,12.17
2019-01-29T03:36:50.242Z,11.30
2019-01-29T03:39:18.043Z,10.67
2019-01-29T03:41:44.855Z,11.13
2019-01-29T03:44:12.779Z,9.03
2019-01-29T03:46:39.573Z,11.10
2019-01-29T03:49:07.077Z,11.43
2019-01-29T03:51:33.763Z,9.37
2019-01-29T03:54:01.253Z,10.03
2019-01-29T03:56:27.967Z,10.50
2019-01-29T03:58:54.770Z,10.43
2019-01-29T04:01:21.455Z,10.93
2019-01-29T04:03:48.890Z,10.40
2019-01-29T04:06:15.632Z,10.30
2019-01-29T04:08:42.301Z,11.13
2019-01-29T04:11:09.724Z,10.20
2019-01-29T04:13:40.125Z,11.90
2019-01-29T04:16:08.580Z,9.93
2019-01-29T04:18:36.020Z,11.17
2019-01-29T04:21:02.822Z,10.90
2019-01-29T04:23:30.320Z,9.30
2019-01-29T04:25:58.288Z,9.37
2019-01-29T04:28:25.123Z,9.20
2019-01-29T04:30:52.726Z,9.33
2019-01-29T04:33:19.495Z,9.13
2019-01-29T04:35:47.072Z,9.27
2019-01-29T04:38:14.117Z,9.43
2019-01-29T04:40:41.247Z,8.80
2019-01-29T04:43:08.024Z,7.83
2019-01-29T04:45:35.051Z,7.73
2019-01-29T04:48:01.972Z,7.87
2019-01-29T04:50:29.636Z,7.90
2019-01-29T04:52:56.456Z,8.00
2019-01-29T04:55:23.307Z,8.40
2019-01-29T04:57:50.317Z,7.60
2019-01-29T05:00:19.016Z,7.57
2019-01-29T05:02:45.988Z,8.30
2019-01-29T05:05:12.773Z,7.13
2019-01-29T05:07:39.695Z,7.77
2019-01-29T05:10:06.754Z,7.47
2019-01-29T05:12:34.736Z,7.03
2019-01-29T05:15:02.224Z,7.17
2019-01-29T05:17:28.983Z,6.70
2019-01-29T05:19:55.684Z,5.87
2019-01-29T05:22:23.094Z,5.53
2019-01-29T05:24:49.873Z,5.93
2019-01-29T05:27:16.539Z,5.47
2019-01-29T05:29:43.355Z,5.40
2019-01-29T05:32:10.837Z,5.53
2019-01-29T05:34:37.509Z,6.07
2019-01-29T05:37:04.220Z,5.63
2019-01-29T05:39:30.978Z,5.70
2019-01-29T05:41:57.658Z,6.07
2019-01-29T05:44:24.346Z,5.83
2019-01-29T05:46:51.109Z,6.00
2019-01-29T05:49:18.744Z,6.13
2019-01-29T05:51:45.804Z,5.33
2019-01-29T05:54:16.361Z,5.77
2019-01-29T05:56:40.973Z,5.77
2019-01-29T05:59:08.623Z,5.93
2019-01-29T06:01:36.394Z,5.30
2019-01-29T06:04:04.019Z,5.80
2019-01-29T06:06:31.070Z,5.70
2019-01-29T06:08:57.825Z,5.63
2019-01-29T06:11:24.536Z,5.87
2019-01-29T06:13:51.962Z,5.60
2019-01-29T06:16:18.671Z,5.13
2019-01-29T06:18:45.394Z,5.57
2019-01-29T06:21:12.967Z,6.17
2019-01-29T06:23:40.184Z,6.13
2019-01-29T06:26:07.302Z,5.87
2019-01-29T06:28:34.762Z,5.63
2019-01-29T06:31:01.857Z,5.43
2019-01-29T06:33:28.603Z,6.33
2019-01-29T06:35:55.282Z,6.43
2019-01-29T06:38:23.427Z,5.57
2019-01-29T06:40:50.192Z,6.47
2019-01-29T06:43:17.406Z,6.53
2019-01-29T06:45:44.152Z,6.87
2019-01-29T06:48:10.902Z,6.33
2019-01-29T06:50:37.969Z,6.33
2019-01-29T06:53:04.898Z,6.57
2019-01-29T06:55:31.933Z,5.93
2019-01-29T06:57:58.781Z,6.10
2019-01-29T07:00:26.522Z,6.40
2019-01-29T07:02:53.546Z,6.10
2019-01-29T07:05:20.400Z,6.37
2019-01-29T07:07:47.507Z,5.77
2019-01-29T07:10:16.649Z,6.10
2019-01-29T07:12:43.378Z,6.07
2019-01-29T07:15:11.262Z,6.20
2019-01-29T07:17:37.962Z,5.67
2019-01-29T07:20:04.775Z,6.33
2019-01-29T07:22:31.476Z,6.53
2019-01-29T07:24:58.161Z,6.13
2019-01-29T07:27:24.934Z,5.77
2019-01-29T07:29:51.635Z,6.17
2019-01-29T07:32:18.326Z,6.03
2019-01-29T07:34:45.075Z,5.03
2019-01-29T07:37:22.379Z,5.60
2019-01-29T07:39:49.602Z,5.93
2019-01-29T07:42:16.876Z,5.80
2019-01-29T07:44:43.803Z,5.57
2019-01-29T07:47:10.812Z,5.53
2019-01-29T07:49:38.386Z,6.13
2019-01-29T07:52:05.462Z,5.37
2019-01-29T07:54:33.395Z,4.87
2019-01-29T07:56:59.393Z,5.40
2019-01-29T07:59:33.253Z,5.63
2019-01-29T08:01:53.175Z,5.20
2019-01-29T08:04:20.173Z,5.97
2019-01-29T08:06:47.078Z,6.00
2019-01-29T08:09:13.952Z,4.93
2019-01-29T08:11:41.556Z,4.57
2019-01-29T08:14:08.429Z,5.30
2019-01-29T08:16:36.114Z,4.87
2019-01-29T08:19:03.815Z,4.70
2019-01-29T08:21:30.552Z,5.23
2019-01-29T08:23:57.513Z,4.70
2019-01-29T08:26:24.291Z,4.73
2019-01-29T08:28:51.725Z,5.20
2019-01-29T08:31:18.856Z,5.70
2019-01-29T08:33:45.529Z,5.77
2019-01-29T08:36:12.224Z,4.60
2019-01-29T08:38:38.964Z,5.03
2019-01-29T08:41:05.655Z,4.60
2019-01-29T08:43:32.341Z,5.23
2019-01-29T08:45:59.565Z,4.90
2019-01-29T08:48:26.563Z,5.17
2019-01-29T08:50:53.399Z,5.53
2019-01-29T08:53:20.223Z,5.50
2019-01-29T08:55:46.941Z,5.17
2019-01-29T08:58:13.764Z,4.90
2019-01-29T09:00:41.325Z,4.70
2019-01-29T09:03:13.708Z,4.83
2019-01-29T09:05:42.316Z,5.10
2019-01-29T09:08:09.396Z,5.13
2019-01-29T09:10:36.364Z,5.30
2019-01-29T09:13:03.614Z,6.00
2019-01-29T09:15:31.299Z,6.37
2019-01-29T09:17:58.301Z,5.20
2019-01-29T09:20:25.057Z,5.43
2019-01-29T09:22:52.262Z,5.37
2019-01-29T09:25:22.407Z,5.60
2019-01-29T09:27:46.392Z,5.20
2019-01-29T09:30:15.167Z,5.63
2019-01-29T09:32:42.051Z,6.23
2019-01-29T09:35:09.134Z,6.50
2019-01-29T09:37:36.053Z,6.03
2019-01-29T09:40:04.538Z,6.20
2019-01-29T09:42:31.359Z,5.60
2019-01-29T09:44:59.023Z,7.00
2019-01-29T09:47:26.592Z,6.87
2019-01-29T09:49:53.810Z,6.97
2019-01-29T09:52:20.536Z,8.00
2019-01-29T09:54:48.113Z,7.10
2019-01-29T09:57:14.799Z,6.80
2019-01-29T09:59:41.504Z,10.03
2019-01-29T10:02:08.219Z,8.23
2019-01-29T10:04:34.987Z,11.43
2019-01-29T10:07:01.731Z,12.53
2019-01-29T10:09:28.540Z,19.07
2019-01-29T10:11:56.031Z,14.00
2019-01-29T10:14:22.744Z,12.33
2019-01-29T10:16:49.479Z,14.37
2019-01-29T10:19:16.170Z,18.63
2019-01-29T10:21:43.588Z,14.57
2019-01-29T10:24:10.371Z,18.63
2019-01-29T10:26:37.781Z,15.50
2019-01-29T10:29:08.200Z,16.73
2019-01-29T10:31:38.230Z,13.63
2019-01-29T10:34:06.024Z,13.83
2019-01-29T10:36:33.589Z,15.37
2019-01-29T10:39:01.486Z,10.13
2019-01-29T10:41:28.682Z,9.80
2019-01-29T10:43:55.383Z,12.00
2019-01-29T10:46:22.573Z,12.03
2019-01-29T10:48:49.774Z,15.63
2019-01-29T10:51:16.543Z,25.03
2019-01-29T10:53:43.585Z,13.77
2019-01-29T10:56:11.184Z,22.30
2019-01-29T10:58:38.957Z,20.00
2019-01-29T11:01:06.741Z,21.67
2019-01-29T11:03:33.563Z,24.83
2019-01-29T11:06:00.579Z,25.13
2019-01-29T11:08:27.329Z,14.50
2019-01-29T11:10:54.068Z,18.60
2019-01-29T11:13:20.876Z,18.73
2019-01-29T11:15:47.980Z,15.97
2019-01-29T11:18:14.772Z,24.27
2019-01-29T11:20:41.607Z,15.53
2019-01-29T11:23:08.554Z,12.00
2019-01-29T11:25:35.407Z,10.20
2019-01-29T11:28:02.354Z,20.37
2019-01-29T11:30:29.080Z,14.47
2019-01-29T11:32:56.025Z,17.13
2019-01-29T11:35:22.824Z,40.27
2019-01-29T11:37:50.298Z,31.60
2019-01-29T11:40:18.615Z,30.17
2019-01-29T11:42:46.128Z,23.40
2019-01-29T11:45:16.284Z,15.37
2019-01-29T11:47:45.069Z,29.93
2019-01-29T11:50:18.967Z,21.40
2019-01-29T11:52:45.970Z,17.10
2019-01-29T11:55:14.061Z,12.63
2019-01-29T11:57:41.902Z,18.83
2019-01-29T12:00:11.463Z,17.50
2019-01-29T12:02:38.138Z,16.23
2019-01-29T12:05:05.815Z,22.07
2019-01-29T12:07:32.691Z,18.10
2019-01-29T12:10:00.741Z,20.60
2019-01-29T12:12:28.517Z,17.73
2019-01-29T12:14:56.238Z,17.20
2019-01-29T12:17:22.969Z,14.37
2019-01-29T12:19:50.088Z,17.43
2019-01-29T12:22:17.210Z,19.13
2019-01-29T12:24:44.022Z,13.70
2019-01-29T12:27:10.711Z,13.27
2019-01-29T12:29:37.786Z,12.83
2019-01-29T12:32:04.546Z,12.13
2019-01-29T12:34:31.330Z,13.17
2019-01-29T12:36:58.052Z,11.50
2019-01-29T12:39:25.125Z,10.03
2019-01-29T12:41:51.834Z,9.23
2019-01-29T12:44:18.568Z,7.70
2019-01-29T12:46:45.271Z,6.13
2019-01-29T12:49:12.015Z,6.77
2019-01-29T12:51:38.773Z,5.80
2019-01-29T12:54:05.487Z,5.50
2019-01-29T12:56:32.239Z,5.03
2019-01-29T12:58:59.015Z,5.43
2019-01-29T13:01:25.778Z,4.27
2019-01-29T13:03:52.565Z,4.20
2019-01-29T13:06:31.311Z,3.97
2019-01-29T13:08:58.955Z,3.53
2019-01-29T13:11:26.513Z,3.80
2019-01-29T13:13:53.478Z,3.30
2019-01-29T13:16:20.264Z,3.20
2019-01-29T13:18:48.383Z,2.93
2019-01-29T13:21:15.160Z,3.10
2019-01-29T13:23:41.953Z,3.13
2019-01-29T13:26:09.316Z,3.07
2019-01-29T13:28:36.274Z,2.83
2019-01-29T13:31:03.247Z,3.20
2019-01-29T13:33:30.055Z,3.27
2019-01-29T13:35:57.203Z,3.00
2019-01-29T13:38:24.824Z,3.40
2019-01-29T13:40:51.651Z,3.60
2019-01-29T13:43:18.679Z,3.17
2019-01-29T13:45:47.295Z,3.30
2019-01-29T13:48:12.494Z,3.40
2019-01-29T13:50:40.385Z,3.13
2019-01-29T13:53:07.157Z,3.50
2019-01-29T13:55:34.303Z,3.30
2019-01-29T13:58:01.108Z,3.30
2019-01-29T14:00:29.853Z,3.50
2019-01-29T14:02:56.575Z,3.77
2019-01-29T14:05:23.379Z,4.03
2019-01-29T14:07:50.809Z,3.57
2019-01-29T14:10:17.550Z,4.13
2019-01-29T14:12:45.782Z,3.33
2019-01-29T14:15:14.244Z,4.10
2019-01-29T14:17:41.491Z,4.60
2019-01-29T14:20:12.231Z,4.43
2019-01-29T14:22:39.041Z,4.03
2019-01-29T14:25:06.599Z,4.60
2019-01-29T14:27:33.620Z,4.57
2019-01-29T14:30:00.441Z,4.60
2019-01-29T14:32:27.270Z,4.70
2019-01-29T14:34:54.361Z,5.00
2019-01-29T14:37:21.464Z,4.90
2019-01-29T14:42:43.071Z,5.53
2019-01-29T14:45:10.783Z,4.40
2019-01-29T14:47:38.548Z,4.63
2019-01-29T14:50:05.392Z,4.97
2019-01-29T14:52:33.145Z,4.77
2019-01-29T14:54:59.893Z,4.33
2019-01-29T14:57:26.737Z,3.93
2019-01-29T14:59:53.477Z,4.00
2019-01-29T15:02:21.076Z,4.43
2019-01-29T15:04:48.083Z,4.60
2019-01-29T15:07:15.902Z,4.17
2019-01-29T15:09:42.773Z,5.77
2019-01-29T15:12:09.637Z,4.90
2019-01-29T15:14:36.673Z,4.70
2019-01-29T15:17:03.733Z,4.50
2019-01-29T15:19:30.573Z,4.60
2019-01-29T15:21:57.419Z,4.93
2019-01-29T15:24:24.158Z,4.90
2019-01-29T15:26:51.003Z,4.70
2019-01-29T15:29:17.743Z,4.20
2019-01-29T15:31:44.585Z,4.57
2019-01-29T15:34:11.529Z,5.00
2019-01-29T15:36:38.476Z,5.23
2019-01-29T15:39:05.523Z,5.10
2019-01-29T15:41:32.363Z,4.50
2019-01-29T15:43:59.315Z,4.40
2019-01-29T15:46:26.156Z,4.60
2019-01-29T15:48:53.102Z,4.70
2019-01-29T15:51:20.045Z,4.83
2019-01-29T15:53:46.886Z,4.90
2019-01-29T15:56:13.835Z,4.67
2019-01-29T15:58:40.682Z,4.47
2019-01-29T16:01:07.518Z,4.93
2019-01-29T16:03:34.360Z,5.33
2019-01-29T16:06:01.306Z,5.40
2019-01-29T16:08:28.149Z,4.73
2019-01-29T16:10:55.092Z,4.87
2019-01-29T16:13:21.934Z,6.13
2019-01-29T16:15:48.888Z,5.43
2019-01-29T16:18:15.829Z,5.13
2019-01-29T16:20:42.569Z,5.10
2019-01-29T16:23:10.129Z,5.00
2019-01-29T16:25:36.972Z,5.37
2019-01-29T16:28:03.714Z,5.60
2019-01-29T16:30:34.545Z,5.03
2019-01-29T16:33:01.492Z,4.73
2019-01-29T16:35:34.985Z,5.37
2019-01-29T16:38:01.834Z,5.30
2019-01-29T16:40:28.674Z,4.73
2019-01-29T16:42:56.690Z,4.93
2019-01-29T16:45:24.001Z,5.17
2019-01-29T16:47:50.844Z,5.17
2019-01-29T16:50:18.403Z,5.30
2019-01-29T16:52:45.244Z,5.10
2019-01-29T16:55:12.191Z,5.60
2019-01-29T16:57:39.433Z,5.33
2019-01-29T17:00:08.520Z,5.23
2019-01-29T17:02:35.651Z,6.97
2019-01-29T17:05:03.339Z,5.40
2019-01-29T17:07:33.046Z,6.57
2019-01-29T17:10:00.318Z,5.93
2019-01-29T17:12:27.168Z,5.83
2019-01-29T17:14:53.917Z,6.00
2019-01-29T17:17:20.819Z,6.40
2019-01-29T17:19:47.595Z,7.40
2019-01-29T17:22:14.330Z,5.80
2019-01-29T17:24:40.991Z,5.73
2019-01-29T17:27:07.723Z,5.93
2019-01-29T17:29:34.625Z,6.23
2019-01-29T17:32:01.374Z,6.80
2019-01-29T17:34:28.227Z,6.70
2019-01-29T17:36:54.932Z,6.23
2019-01-29T17:39:22.340Z,6.93
2019-01-29T17:41:49.208Z,6.10
2019-01-29T17:44:16.325Z,6.60
2019-01-29T17:46:43.108Z,6.77
2019-01-29T17:49:10.243Z,6.70
2019-01-29T17:51:37.812Z,6.43
2019-01-29T17:54:05.483Z,7.37
2019-01-29T17:56:32.692Z,6.60
2019-01-29T17:59:00.416Z,6.73
2019-01-29T18:01:27.246Z,7.53
2019-01-29T18:03:54.958Z,8.83
2019-01-29T18:06:23.051Z,6.97
2019-01-29T18:08:50.231Z,8.33
2019-01-29T18:11:17.832Z,8.97
2019-01-29T18:13:44.623Z,8.23
2019-01-29T18:16:12.337Z,8.80
2019-01-29T18:18:39.181Z,7.80
2019-01-29T18:21:06.227Z,7.77
2019-01-29T18:23:33.311Z,7.77
2019-01-29T18:26:00.849Z,7.33
2019-01-29T18:28:27.651Z,7.80
2019-01-29T18:30:54.692Z,7.40
2019-01-29T18:33:22.457Z,7.53
2019-01-29T18:35:49.958Z,14.03
2019-01-29T18:38:16.723Z,7.90
2019-01-29T18:40:46.234Z,7.53
2019-01-29T18:43:12.995Z,7.27
2019-01-29T18:45:40.161Z,7.30
2019-01-29T18:48:06.945Z,8.37
2019-01-29T18:50:33.737Z,9.13
2019-01-29T18:53:00.526Z,12.80
2019-01-29T18:55:27.317Z,9.30
2019-01-29T18:57:54.802Z,7.70
2019-01-29T19:00:21.599Z,9.13
2019-01-29T19:02:49.192Z,8.80
2019-01-29T19:05:15.942Z,8.37
2019-01-29T19:07:44.818Z,8.00
2019-01-29T19:10:10.685Z,8.80
2019-01-29T19:12:37.393Z,8.10
2019-01-29T19:15:04.157Z,6.47
2019-01-29T19:17:31.651Z,10.13
2019-01-29T19:19:58.621Z,7.67
2019-01-29T19:22:28.480Z,6.97
2019-01-29T19:24:55.869Z,8.27
2019-01-29T19:27:23.380Z,9.30
2019-01-29T19:29:50.174Z,6.97
2019-01-29T19:32:17.688Z,8.23
2019-01-29T19:34:44.723Z,9.37
2019-01-29T19:37:12.052Z,7.10
2019-01-29T19:39:39.743Z,7.20
2019-01-29T19:42:06.505Z,9.47
2019-01-29T19:44:33.328Z,6.73
2019-01-29T19:47:00.394Z,6.93
2019-01-29T19:49:27.332Z,7.27
2019-01-29T19:51:54.219Z,6.63
2019-01-29T19:54:21.968Z,6.90
2019-01-29T19:56:49.530Z,6.37
2019-01-29T19:59:16.530Z,6.13
2019-01-29T20:01:43.365Z,6.20
2019-01-29T20:04:10.126Z,6.83
2019-01-29T20:06:37.242Z,6.83
2019-01-29T20:09:04.947Z,6.90
2019-01-29T20:11:31.735Z,6.33
2019-01-29T20:13:58.801Z,6.50
2019-01-29T20:16:25.696Z,5.97
2019-01-29T20:18:52.436Z,6.63
2019-01-29T20:21:19.917Z,6.37
2019-01-29T20:23:47.471Z,6.53
2019-01-29T20:26:15.102Z,6.57
2019-01-29T20:28:42.725Z,5.80
2019-01-29T20:31:08.722Z,5.93
2019-01-29T20:33:36.325Z,5.63
2019-01-29T20:36:03.314Z,5.97
2019-01-29T20:38:35.112Z,6.37
2019-01-29T20:40:57.676Z,8.30
2019-01-29T20:43:25.449Z,6.50
2019-01-29T20:45:51.144Z,5.93
2019-01-29T20:48:17.880Z,5.77
2019-01-29T20:50:44.624Z,6.13
2019-01-29T20:53:11.314Z,5.93
2019-01-29T20:55:38.880Z,5.77
2019-01-29T20:58:05.676Z,7.43
2019-01-29T21:00:37.936Z,5.60
2019-01-29T21:03:05.008Z,5.10
2019-01-29T21:05:31.905Z,5.37
2019-01-29T21:08:00.577Z,5.27
2019-01-29T21:10:27.488Z,5.70
2019-01-29T21:12:54.278Z,4.87
2019-01-29T21:15:22.571Z,5.33
2019-01-29T21:17:49.611Z,6.27
2019-01-29T21:20:17.282Z,4.93
2019-01-29T21:22:44.027Z,6.30
2019-01-29T21:25:10.991Z,5.00
2019-01-29T21:27:37.758Z,5.07
2019-01-29T21:30:10.196Z,5.07
2019-01-29T21:32:37.042Z,5.03
2019-01-29T21:35:04.520Z,4.67
2019-01-29T21:37:34.517Z,5.33
2019-01-29T21:40:01.294Z,4.77
2019-01-29T21:42:28.007Z,5.03
2019-01-29T21:44:54.705Z,5.53
2019-01-29T21:47:21.449Z,6.77
2019-01-29T21:49:48.154Z,5.63
2019-01-29T21:52:14.822Z,4.87
2019-01-29T21:54:42.293Z,5.00
2019-01-29T21:57:08.998Z,4.80
2019-01-29T21:59:36.449Z,4.77
2019-01-29T22:02:03.240Z,4.83
2019-01-29T22:04:29.909Z,5.10
2019-01-29T22:06:56.625Z,4.73
2019-01-29T22:09:23.381Z,4.83
2019-01-29T22:11:51.065Z,5.10
2019-01-29T22:14:19.052Z,5.10
2019-01-29T22:16:46.568Z,4.47
2019-01-29T22:19:13.674Z,6.23
2019-01-29T22:21:41.962Z,4.87
2019-01-29T22:24:09.143Z,5.03
2019-01-29T22:26:36.706Z,4.57
2019-01-29T22:29:03.553Z,4.70
2019-01-29T22:31:30.393Z,4.87
2019-01-29T22:33:57.690Z,8.17
2019-01-29T22:36:25.401Z,4.33
2019-01-29T22:38:52.555Z,4.20
2019-01-29T22:41:19.715Z,4.53
2019-01-29T22:43:46.510Z,4.67
2019-01-29T22:46:13.335Z,5.00
2019-01-29T22:48:40.843Z,4.63
2019-01-29T22:51:07.894Z,4.70
2019-01-29T22:53:34.951Z,4.27
2019-01-29T22:56:01.728Z,4.40
2019-01-29T22:58:29.287Z,4.57
2019-01-29T23:01:08.952Z,5.50
2019-01-29T23:03:37.628Z,4.30
2019-01-29T23:09:00.525Z,5.15
2019-01-29T23:11:27.312Z,4.73
2019-01-29T23:13:54.937Z,4.30
2019-01-29T23:16:21.722Z,4.80
2019-01-29T23:18:48.451Z,4.60
2019-01-29T23:21:15.179Z,4.23
2019-01-29T23:23:41.868Z,4.20
2019-01-29T23:26:09.310Z,5.10
2019-01-29T23:28:36.794Z,4.23
2019-01-29T23:31:03.605Z,4.83
2019-01-29T23:33:30.300Z,4.67
2019-01-29T23:35:57.024Z,5.00
2019-01-29T23:38:23.700Z,4.67
2019-01-29T23:40:51.455Z,4.60
2019-01-29T23:43:18.603Z,3.83
2019-01-29T23:45:45.437Z,3.90
2019-01-29T23:48:12.559Z,3.93
2019-01-29T23:50:39.366Z,4.33
2019-01-29T23:53:07.267Z,4.10
2019-01-29T23:55:34.135Z,5.33
2019-01-29T23:58:01.263Z,3.83
